createdAt,value
2018-02-21T00:02:14.010Z,82.70
2018-02-21T00:04:41.511Z,82.60
2018-02-21T00:07:09.023Z,82.60
2018-02-21T00:09:36.523Z,82.30
2018-02-21T00:12:04.782Z,82.60
2018-02-21T00:14:33.063Z,82.70
2018-02-21T00:17:01.336Z,82.70
2018-02-21T00:19:29.617Z,82.60
2018-02-21T00:21:57.895Z,82.60
2018-02-21T00:24:26.167Z,82.50
2018-02-21T00:26:54.435Z,82.60
2018-02-21T00:29:21.937Z,82.60
2018-02-21T00:31:49.455Z,82.30
2018-02-21T00:34:17.727Z,82.20
2018-02-21T00:36:45.231Z,82.10
2018-02-21T00:39:12.763Z,82.20
2018-02-21T00:41:41.068Z,82.50
2018-02-21T00:44:08.559Z,82.50
2018-02-21T00:46:36.058Z,83.10
2018-02-21T00:49:04.328Z,83.40
2018-02-21T00:51:32.608Z,83.70
2018-02-21T00:54:00.903Z,83.80
2018-02-21T00:56:28.406Z,83.70
2018-02-21T00:58:55.904Z,84.10
2018-02-21T01:01:24.167Z,85.40
2018-02-21T01:03:52.459Z,85.10
2018-02-21T01:06:20.731Z,85.30
2018-02-21T01:08:48.992Z,85.60
2018-02-21T01:11:17.254Z,85.80
2018-02-21T01:13:44.746Z,85.70
2018-02-21T01:16:13.008Z,85.50
2018-02-21T01:18:41.295Z,84.70
2018-02-21T01:21:09.598Z,84.50
2018-02-21T01:23:37.115Z,84.40
2018-02-21T01:26:04.609Z,84.40
2018-02-21T01:28:32.115Z,84.40
2018-02-21T01:30:59.602Z,84.50
2018-02-21T01:33:27.869Z,84.50
2018-02-21T01:35:56.139Z,84.50
2018-02-21T01:38:23.651Z,84.50
2018-02-21T01:40:51.166Z,84.60
2018-02-21T01:43:19.433Z,85.00
2018-02-21T01:45:47.036Z,84.90
2018-02-21T01:48:14.543Z,85.50
2018-02-21T01:50:51.843Z,85.80
2018-02-21T01:53:20.119Z,85.80
2018-02-21T01:55:48.405Z,85.50
2018-02-21T01:58:16.671Z,85.60
2018-02-21T02:00:44.995Z,85.40
2018-02-21T02:03:12.488Z,85.40
2018-02-21T02:05:40.005Z,85.50
2018-02-21T02:08:07.512Z,85.00
2018-02-21T02:10:35.776Z,83.10
2018-02-21T02:13:03.271Z,83.20
2018-02-21T02:15:31.543Z,83.30
2018-02-21T02:17:59.807Z,83.50
2018-02-21T02:20:27.326Z,83.50
2018-02-21T02:22:54.815Z,83.40
2018-02-21T02:25:22.307Z,83.30
2018-02-21T02:27:49.803Z,83.30
2018-02-21T02:30:17.344Z,83.70
2018-02-21T02:32:44.844Z,83.80
2018-02-21T02:35:12.361Z,83.80
2018-02-21T02:37:39.875Z,83.60
2018-02-21T02:40:07.446Z,83.50
2018-02-21T02:42:35.719Z,83.80
2018-02-21T02:45:03.976Z,83.70
2018-02-21T02:47:31.487Z,83.50
2018-02-21T02:49:59.000Z,83.40
2018-02-21T02:52:26.495Z,83.10
2018-02-21T02:54:54.011Z,82.80
2018-02-21T02:57:21.534Z,82.90
2018-02-21T02:59:49.036Z,82.50
2018-02-21T03:02:16.562Z,82.60
2018-02-21T03:04:44.067Z,82.70
2018-02-21T03:07:13.067Z,82.50
2018-02-21T03:09:40.744Z,82.50
2018-02-21T03:12:08.250Z,82.10
2018-02-21T03:14:35.750Z,81.80
2018-02-21T03:17:03.256Z,81.40
2018-02-21T03:19:30.758Z,81.30
2018-02-21T03:21:59.063Z,80.60
2018-02-21T03:24:26.558Z,80.60
2018-02-21T03:26:54.071Z,80.70
2018-02-21T03:29:21.576Z,80.50
2018-02-21T03:31:49.101Z,80.60
2018-02-21T03:34:16.599Z,80.60
2018-02-21T03:36:44.217Z,80.70
2018-02-21T03:39:11.720Z,80.90
2018-02-21T03:41:39.231Z,80.90
2018-02-21T03:44:06.739Z,80.80
2018-02-21T03:46:34.235Z,80.70
2018-02-21T03:49:01.739Z,80.70
2018-02-21T03:51:29.239Z,80.70
2018-02-21T03:53:57.510Z,80.60
2018-02-21T03:56:25.784Z,80.70
2018-02-21T03:58:54.043Z,80.80
2018-02-21T04:01:21.551Z,80.60
2018-02-21T04:03:49.050Z,80.60
2018-02-21T04:06:16.555Z,80.90
2018-02-21T04:08:44.063Z,80.90
2018-02-21T04:11:11.574Z,81.00
2018-02-21T04:13:39.091Z,81.10
2018-02-21T04:16:06.586Z,81.10
2018-02-21T04:18:34.135Z,81.30
2018-02-21T04:21:02.398Z,81.70
2018-02-21T04:23:30.682Z,81.70
2018-02-21T04:25:58.955Z,81.50
2018-02-21T04:28:27.226Z,82.10
2018-02-21T04:30:55.492Z,82.80
2018-02-21T04:33:22.983Z,82.80
2018-02-21T04:35:50.502Z,82.70
2018-02-21T04:38:18.012Z,82.70
2018-02-21T04:40:45.511Z,82.90
2018-02-21T04:43:13.020Z,82.70
2018-02-21T04:45:40.531Z,82.50
2018-02-21T04:48:08.027Z,82.50
2018-02-21T04:50:35.551Z,82.50
2018-02-21T04:53:03.043Z,82.60
2018-02-21T04:55:34.496Z,82.50
2018-02-21T05:11:28.103Z,81.80
2018-02-21T05:13:55.634Z,81.80
2018-02-21T05:16:23.132Z,82.00
2018-02-21T05:18:50.639Z,82.30
2018-02-21T05:21:18.147Z,82.50
2018-02-21T05:23:45.643Z,83.00
2018-02-21T05:26:13.918Z,83.00
2018-02-21T05:28:42.180Z,82.80
2018-02-21T05:31:09.687Z,82.80
2018-02-21T05:33:37.182Z,83.10
2018-02-21T05:36:04.722Z,83.30
2018-02-21T05:38:32.238Z,83.30
2018-02-21T05:40:59.735Z,83.20
2018-02-21T05:43:27.271Z,83.50
2018-02-21T05:45:54.769Z,83.20
2018-02-21T05:48:22.288Z,83.30
2018-02-21T05:50:49.791Z,83.20
2018-02-21T05:53:17.289Z,83.20
2018-02-21T05:55:44.809Z,83.20
2018-02-21T05:58:12.303Z,83.10
2018-02-21T06:00:39.820Z,83.20
2018-02-21T06:03:07.327Z,83.40
2018-02-21T06:05:34.823Z,83.20
2018-02-21T06:08:02.368Z,83.40
2018-02-21T06:10:29.863Z,83.50
2018-02-21T06:12:57.376Z,83.70
2018-02-21T06:15:24.876Z,83.70
2018-02-21T06:17:52.386Z,83.70
2018-02-21T06:20:19.911Z,83.60
2018-02-21T06:22:48.194Z,83.30
2018-02-21T06:25:16.459Z,83.40
2018-02-21T06:27:44.735Z,83.60
2018-02-21T06:30:12.233Z,83.60
2018-02-21T06:32:39.731Z,83.60
2018-02-21T06:35:07.237Z,83.50
2018-02-21T06:37:34.748Z,83.70
2018-02-21T06:40:02.268Z,83.90
2018-02-21T06:42:29.784Z,84.00
2018-02-21T06:44:57.279Z,84.10
2018-02-21T06:47:24.797Z,84.60
2018-02-21T06:49:52.313Z,83.80
2018-02-21T06:52:19.811Z,83.70
2018-02-21T06:54:47.308Z,83.60
2018-02-21T06:57:14.826Z,83.70
2018-02-21T06:59:42.342Z,83.60
2018-02-21T07:02:09.839Z,83.50
2018-02-21T07:04:37.335Z,82.80
2018-02-21T07:07:04.839Z,82.00
2018-02-21T07:09:32.343Z,82.00
2018-02-21T07:12:00.618Z,82.10
2018-02-21T07:14:28.878Z,81.00
2018-02-21T07:16:56.379Z,81.00
2018-02-21T07:19:23.874Z,81.30
2018-02-21T07:21:51.368Z,80.90
2018-02-21T07:24:19.635Z,81.10
2018-02-21T07:26:47.899Z,80.90
2018-02-21T07:29:15.395Z,80.90
2018-02-21T07:31:42.891Z,80.50
2018-02-21T07:34:10.411Z,80.90
2018-02-21T07:36:37.927Z,81.00
2018-02-21T07:39:05.423Z,81.50
2018-02-21T07:41:32.929Z,81.70
2018-02-21T07:44:00.463Z,82.10
2018-02-21T07:46:27.973Z,81.80
2018-02-21T07:48:56.251Z,81.90
2018-02-21T07:51:24.580Z,81.60
2018-02-21T07:53:52.088Z,81.50
2018-02-21T07:56:20.352Z,80.80
2018-02-21T07:58:47.847Z,80.60
2018-02-21T08:01:15.348Z,80.20
2018-02-21T08:03:42.863Z,79.80
2018-02-21T08:06:10.363Z,79.90
2018-02-21T08:08:37.867Z,79.20
2018-02-21T08:11:06.215Z,78.60
2018-02-21T08:13:33.719Z,78.50
2018-02-21T08:16:01.223Z,78.40
2018-02-21T08:18:28.719Z,78.00
2018-02-21T08:20:57.021Z,77.80
2018-02-21T08:23:24.539Z,77.70
2018-02-21T08:25:52.039Z,76.50
2018-02-21T08:28:19.630Z,77.70
2018-02-21T08:30:47.864Z,74.90
2018-02-21T08:33:15.362Z,74.80
2018-02-21T08:35:42.913Z,73.80
2018-02-21T08:38:10.565Z,74.60
2018-02-21T08:40:38.132Z,73.80
2018-02-21T08:43:05.879Z,72.50
2018-02-21T08:45:33.465Z,73.00
2018-02-21T08:48:01.057Z,71.90
2018-02-21T08:50:29.486Z,72.20
2018-02-21T08:52:57.046Z,72.10
2018-02-21T08:55:24.698Z,71.40
2018-02-21T08:57:52.289Z,71.10
2018-02-21T09:00:20.032Z,70.00
2018-02-21T09:02:47.685Z,70.50
2018-02-21T09:05:15.261Z,70.10
2018-02-21T09:07:42.870Z,69.80
2018-02-21T09:10:11.233Z,68.60
2018-02-21T09:12:38.808Z,68.50
2018-02-21T09:15:07.173Z,68.50
2018-02-21T09:17:36.263Z,68.50
2018-02-21T09:20:03.838Z,68.40
2018-02-21T09:22:32.197Z,67.20
2018-02-21T09:24:59.792Z,67.00
2018-02-21T09:27:28.199Z,68.30
2018-02-21T09:29:55.852Z,68.30
2018-02-21T09:32:23.359Z,67.30
2018-02-21T09:34:50.978Z,66.40
2018-02-21T09:37:18.643Z,66.10
2018-02-21T09:39:46.305Z,65.40
2018-02-21T09:42:13.894Z,65.40
2018-02-21T09:44:41.428Z,65.50
2018-02-21T09:47:09.025Z,65.90
2018-02-21T09:49:36.590Z,65.00
2018-02-21T09:52:04.159Z,64.60
2018-02-21T09:54:31.715Z,65.20
2018-02-21T09:56:59.218Z,65.20
2018-02-21T09:59:26.786Z,64.60
2018-02-21T10:01:54.344Z,64.90
2018-02-21T10:04:21.889Z,64.50
2018-02-21T10:06:49.517Z,65.10
2018-02-21T10:09:18.773Z,64.30
2018-02-21T10:11:46.377Z,65.00
2018-02-21T10:14:13.945Z,64.40
2018-02-21T10:16:42.337Z,63.80
2018-02-21T10:19:10.674Z,63.60
2018-02-21T10:21:38.310Z,63.50
2018-02-21T10:24:05.868Z,62.10
2018-02-21T10:26:33.419Z,62.40
2018-02-21T10:29:00.949Z,65.60
2018-02-21T10:31:29.284Z,64.70
2018-02-21T10:33:56.817Z,64.70
2018-02-21T10:36:24.449Z,61.60
2018-02-21T10:38:52.733Z,59.00
2018-02-21T10:41:20.315Z,59.00
2018-02-21T10:43:47.979Z,59.20
2018-02-21T10:46:15.527Z,58.10
2018-02-21T10:48:43.070Z,59.10
2018-02-21T10:51:10.639Z,58.70
2018-02-21T10:53:38.153Z,59.30
2018-02-21T10:56:05.690Z,60.40
2018-02-21T10:58:33.223Z,59.60
2018-02-21T11:01:06.499Z,59.10
2018-02-21T11:03:34.118Z,59.00
2018-02-21T11:06:01.671Z,58.60
2018-02-21T11:08:29.216Z,59.30
2018-02-21T11:10:56.981Z,57.60
2018-02-21T11:13:24.576Z,57.60
2018-02-21T11:15:52.145Z,57.70
2018-02-21T11:18:20.470Z,56.50
2018-02-21T11:20:48.045Z,56.50
2018-02-21T11:23:15.687Z,55.50
2018-02-21T11:25:43.272Z,55.00
2018-02-21T11:28:10.849Z,56.10
2018-02-21T11:30:38.393Z,56.40
2018-02-21T11:33:05.954Z,56.30
2018-02-21T11:35:33.464Z,56.30
2018-02-21T11:38:00.988Z,56.40
2018-02-21T11:40:29.285Z,54.90
2018-02-21T11:42:57.592Z,55.90
2018-02-21T11:45:25.091Z,55.90
2018-02-21T11:47:52.646Z,55.90
2018-02-21T11:50:20.201Z,55.00
2018-02-21T11:52:47.713Z,55.50
2018-02-21T11:55:15.287Z,55.90
2018-02-21T11:57:42.802Z,55.80
2018-02-21T12:00:10.307Z,55.10
2018-02-21T12:02:37.878Z,54.10
2018-02-21T12:05:06.099Z,54.80
2018-02-21T12:07:34.666Z,54.70
2018-02-21T12:10:02.951Z,54.80
2018-02-21T12:12:30.473Z,54.70
2018-02-21T12:14:57.980Z,55.80
2018-02-21T12:17:26.251Z,54.80
2018-02-21T12:19:53.852Z,54.80
2018-02-21T12:22:21.372Z,54.50
2018-02-21T12:24:49.695Z,56.50
2018-02-21T12:27:17.187Z,56.50
2018-02-21T12:29:44.692Z,55.90
2018-02-21T12:32:14.716Z,56.00
2018-02-21T12:34:42.231Z,56.40
2018-02-21T12:37:09.732Z,55.10
2018-02-21T12:39:37.238Z,55.70
2018-02-21T12:42:05.510Z,57.20
2018-02-21T12:44:33.007Z,57.20
2018-02-21T12:47:01.313Z,57.20
2018-02-21T12:49:28.829Z,57.10
2018-02-21T12:51:57.114Z,57.00
2018-02-21T12:54:25.387Z,57.20
2018-02-21T12:56:53.647Z,56.50
2018-02-21T12:59:21.153Z,56.50
2018-02-21T13:01:48.675Z,56.20
2018-02-21T13:04:16.963Z,56.40
2018-02-21T13:06:45.228Z,56.20
2018-02-21T13:09:13.505Z,56.40
2018-02-21T13:11:41.798Z,55.30
2018-02-21T13:14:09.300Z,55.30
2018-02-21T13:16:36.793Z,54.50
2018-02-21T13:19:05.064Z,54.80
2018-02-21T13:21:32.566Z,54.80
2018-02-21T13:24:00.080Z,55.10
2018-02-21T13:26:28.376Z,54.90
2018-02-21T13:28:56.636Z,55.60
2018-02-21T13:31:24.153Z,55.60
2018-02-21T13:33:51.647Z,56.50
2018-02-21T13:36:19.167Z,56.10
2018-02-21T13:38:46.660Z,56.80
2018-02-21T13:41:14.180Z,57.00
2018-02-21T13:43:41.683Z,56.40
2018-02-21T13:46:09.174Z,54.90
2018-02-21T13:48:36.670Z,55.00
2018-02-21T13:51:04.183Z,56.20
2018-02-21T13:53:32.444Z,55.20
2018-02-21T13:56:00.708Z,56.00
2018-02-21T13:58:28.219Z,56.00
2018-02-21T14:00:55.747Z,56.70
2018-02-21T14:03:24.008Z,56.20
2018-02-21T14:05:51.502Z,56.20
2018-02-21T14:08:19.023Z,55.90
2018-02-21T14:10:46.519Z,55.70
2018-02-21T14:13:14.039Z,56.70
2018-02-21T14:15:42.311Z,55.50
2018-02-21T14:18:09.815Z,55.50
2018-02-21T14:20:37.314Z,55.60
2018-02-21T14:23:05.581Z,55.90
2018-02-21T14:25:33.090Z,55.60
2018-02-21T14:28:00.601Z,56.60
2018-02-21T14:30:28.116Z,57.20
2018-02-21T14:32:55.628Z,56.90
2018-02-21T14:35:23.207Z,57.40
2018-02-21T14:37:50.667Z,56.30
2018-02-21T14:40:18.939Z,57.30
2018-02-21T14:42:47.696Z,57.60
2018-02-21T14:45:15.208Z,57.60
2018-02-21T14:47:42.703Z,57.20
2018-02-21T14:50:10.204Z,57.60
2018-02-21T14:52:38.472Z,57.70
2018-02-21T14:55:05.996Z,57.70
2018-02-21T14:57:33.507Z,57.80
2018-02-21T15:00:01.774Z,58.50
2018-02-21T15:02:30.045Z,58.70
2018-02-21T15:04:57.541Z,58.60
2018-02-21T15:07:25.072Z,58.90
2018-02-21T15:09:53.339Z,60.20
2018-02-21T15:12:21.609Z,60.90
2018-02-21T15:14:49.113Z,60.60
2018-02-21T15:17:16.621Z,61.10
2018-02-21T15:19:44.139Z,61.80
2018-02-21T15:22:11.652Z,62.00
2018-02-21T15:24:39.924Z,62.20
2018-02-21T15:27:07.427Z,62.20
2018-02-21T15:29:34.940Z,62.00
2018-02-21T15:32:02.430Z,61.80
2018-02-21T15:34:29.939Z,62.00
2018-02-21T15:36:57.437Z,62.20
2018-02-21T15:39:25.719Z,62.00
2018-02-21T15:41:53.222Z,61.90
2018-02-21T15:44:20.853Z,62.10
2018-02-21T15:46:48.360Z,62.10
2018-02-21T15:49:15.891Z,61.70
2018-02-21T15:51:43.403Z,62.00
2018-02-21T15:54:11.680Z,63.00
2018-02-21T15:56:39.960Z,63.30
2018-02-21T15:59:08.243Z,63.70
2018-02-21T16:01:35.753Z,63.50
2018-02-21T16:04:03.275Z,63.70
2018-02-21T16:06:30.779Z,63.80
2018-02-21T16:08:58.291Z,63.90
2018-02-21T16:11:25.792Z,63.80
2018-02-21T16:13:53.294Z,64.10
2018-02-21T16:16:20.806Z,64.50
2018-02-21T16:18:48.312Z,64.60
2018-02-21T16:21:15.815Z,64.90
2018-02-21T16:23:43.318Z,65.20
2018-02-21T16:26:11.619Z,66.00
2018-02-21T16:28:39.152Z,66.00
2018-02-21T16:31:07.427Z,67.40
2018-02-21T16:33:35.692Z,67.90
2018-02-21T16:36:03.973Z,68.70
2018-02-21T16:38:32.276Z,68.80
2018-02-21T16:40:59.783Z,68.60
2018-02-21T16:43:27.363Z,69.30
2018-02-21T16:45:55.636Z,69.40
2018-02-21T16:48:23.154Z,70.10
2018-02-21T16:50:50.657Z,69.50
2018-02-21T16:53:18.938Z,69.60
2018-02-21T16:55:47.223Z,70.20
2018-02-21T16:58:15.483Z,70.60
2018-02-21T17:00:43.761Z,70.90
2018-02-21T17:03:12.039Z,70.80
2018-02-21T17:05:40.310Z,70.80
2018-02-21T17:08:07.812Z,70.70
2018-02-21T17:10:35.325Z,70.00
2018-02-21T17:13:02.832Z,70.00
2018-02-21T17:15:30.322Z,70.40
2018-02-21T17:17:57.820Z,71.00
2018-02-21T17:20:26.091Z,72.30
2018-02-21T17:22:54.365Z,72.60
2018-02-21T17:25:22.658Z,72.90
2018-02-21T17:27:50.162Z,72.80
2018-02-21T17:30:17.667Z,70.60
2018-02-21T17:32:45.927Z,69.10
2018-02-21T17:35:14.188Z,73.90
2018-02-21T17:37:41.700Z,73.90
2018-02-21T17:40:09.207Z,68.50
2018-02-21T17:42:36.719Z,67.40
2018-02-21T17:45:04.240Z,65.90
2018-02-21T17:47:32.511Z,64.70
2018-02-21T17:50:00.013Z,65.50
2018-02-21T17:52:27.512Z,64.80
2018-02-21T17:54:55.006Z,65.40
2018-02-21T17:57:22.528Z,65.60
2018-02-21T17:59:50.021Z,65.70
2018-02-21T18:02:18.296Z,66.10
2018-02-21T18:04:46.555Z,66.60
2018-02-21T18:07:14.819Z,67.10
2018-02-21T18:09:42.329Z,67.10
2018-02-21T18:12:09.862Z,67.30
2018-02-21T18:14:38.119Z,67.50
2018-02-21T18:17:06.400Z,68.50
2018-02-21T18:19:34.663Z,69.20
2018-02-21T18:22:02.161Z,69.10
2018-02-21T18:24:29.679Z,69.60
2018-02-21T18:26:57.172Z,70.40
2018-02-21T18:29:25.452Z,70.30
2018-02-21T18:31:52.955Z,70.30
2018-02-21T18:34:20.467Z,70.40
2018-02-21T18:36:47.963Z,70.50
2018-02-21T18:39:15.473Z,70.60
2018-02-21T18:41:43.740Z,71.00
2018-02-21T18:44:12.019Z,71.10
2018-02-21T18:46:40.331Z,71.40
2018-02-21T18:49:07.850Z,71.40
2018-02-21T18:51:36.122Z,71.90
2018-02-21T18:54:03.623Z,71.90
2018-02-21T18:56:31.124Z,72.00
2018-02-21T18:58:58.641Z,71.80
2018-02-21T19:01:26.164Z,71.60
2018-02-21T19:03:54.439Z,71.50
2018-02-21T19:06:22.718Z,72.70
2018-02-21T19:08:50.990Z,72.00
2018-02-21T19:11:19.260Z,72.00
2018-02-21T19:13:46.752Z,72.00
2018-02-21T19:16:14.265Z,72.00
2018-02-21T19:18:41.788Z,71.50
2018-02-21T19:21:09.284Z,71.40
2018-02-21T19:23:36.802Z,71.70
2018-02-21T19:26:04.306Z,72.00
2018-02-21T19:28:31.810Z,72.10
2018-02-21T19:30:59.344Z,72.90
2018-02-21T19:33:27.608Z,72.50
2018-02-21T19:35:55.871Z,72.80
2018-02-21T19:38:23.399Z,72.80
2018-02-21T19:40:50.901Z,72.50
2018-02-21T19:43:19.235Z,71.90
2018-02-21T19:45:46.746Z,71.90
2018-02-21T19:48:15.022Z,71.40
2018-02-21T19:50:43.337Z,70.90
2018-02-21T19:53:10.872Z,70.90
2018-02-21T19:55:38.376Z,70.70
2018-02-21T19:58:05.888Z,70.90
2018-02-21T20:00:33.382Z,71.10
2018-02-21T20:03:00.952Z,70.30
2018-02-21T20:05:28.466Z,69.90
2018-02-21T20:07:56.006Z,69.70
2018-02-21T20:10:24.284Z,69.40
2018-02-21T20:12:52.556Z,69.10
2018-02-21T20:15:20.854Z,69.40
2018-02-21T20:17:48.420Z,69.30
2018-02-21T20:20:15.964Z,69.40
2018-02-21T20:22:44.239Z,69.10
2018-02-21T20:25:12.506Z,69.20
2018-02-21T20:27:40.778Z,69.30
2018-02-21T20:30:09.177Z,69.30
2018-02-21T20:32:36.594Z,69.10
2018-02-21T20:35:04.092Z,69.30
2018-02-21T20:37:32.354Z,69.50
2018-02-21T20:40:00.622Z,69.90
2018-02-21T20:42:28.910Z,70.10
2018-02-21T20:44:57.200Z,70.30
2018-02-21T20:47:24.710Z,70.20
2018-02-21T20:49:52.221Z,70.50
2018-02-21T20:52:19.721Z,70.70
2018-02-21T20:54:47.216Z,70.70
2018-02-21T20:57:15.478Z,70.40
2018-02-21T20:59:43.739Z,70.40
2018-02-21T21:02:11.243Z,70.40
2018-02-21T21:04:38.748Z,70.20
2018-02-21T21:07:06.249Z,70.10
2018-02-21T21:09:34.507Z,69.80
2018-02-21T21:12:02.113Z,69.70
2018-02-21T21:14:29.614Z,69.80
2018-02-21T21:16:57.187Z,70.10
2018-02-21T21:19:24.654Z,70.30
2018-02-21T21:21:52.927Z,69.80
2018-02-21T21:24:21.203Z,69.80
2018-02-21T21:26:49.467Z,70.00
2018-02-21T21:29:18.467Z,70.00
2018-02-21T21:31:45.987Z,70.00
2018-02-21T21:34:13.532Z,70.00
2018-02-21T21:36:41.035Z,69.80
2018-02-21T21:39:08.539Z,69.90
2018-02-21T21:41:36.035Z,69.80
2018-02-21T21:44:03.532Z,69.80
2018-02-21T21:46:31.808Z,69.90
2018-02-21T21:49:00.073Z,69.60
2018-02-21T21:51:27.566Z,69.60
2018-02-21T21:53:55.056Z,69.60
2018-02-21T21:56:22.562Z,69.50
2018-02-21T21:58:50.823Z,69.80
2018-02-21T22:01:18.319Z,69.70
2018-02-21T22:03:45.819Z,69.70
2018-02-21T22:06:13.315Z,69.70
2018-02-21T22:08:41.586Z,69.60
2018-02-21T22:11:09.897Z,68.90
2018-02-21T22:13:37.395Z,68.70
2018-02-21T22:16:04.910Z,68.90
2018-02-21T22:18:32.410Z,69.50
2018-02-21T22:20:59.910Z,69.40
2018-02-21T22:23:27.420Z,69.60
2018-02-21T22:25:54.915Z,69.70
2018-02-21T22:28:23.179Z,69.80
2018-02-21T22:30:51.443Z,69.70
2018-02-21T22:33:18.967Z,69.70
2018-02-21T22:35:46.473Z,69.60
2018-02-21T22:38:14.740Z,69.50
2018-02-21T22:40:42.240Z,69.50
2018-02-21T22:43:09.756Z,69.40
2018-02-21T22:45:37.264Z,69.30
2018-02-21T22:48:04.760Z,69.10
2018-02-21T22:50:32.251Z,68.90
2018-02-21T22:53:00.519Z,67.40
2018-02-21T22:55:28.787Z,67.30
2018-02-21T22:57:56.286Z,67.30
2018-02-21T23:00:24.544Z,67.50
2018-02-21T23:02:52.100Z,67.60
2018-02-21T23:05:20.374Z,66.50
2018-02-21T23:07:48.646Z,66.80
2018-02-21T23:10:16.918Z,66.80
2018-02-21T23:12:45.175Z,67.30
2018-02-21T23:15:12.763Z,67.20
2018-02-21T23:17:41.022Z,67.50
2018-02-21T23:20:08.511Z,67.50
2018-02-21T23:22:36.052Z,67.30
2018-02-21T23:25:03.527Z,67.80
2018-02-21T23:27:31.046Z,68.00
2018-02-21T23:29:58.555Z,67.60
2018-02-21T23:32:26.056Z,67.90
2018-02-21T23:34:53.547Z,68.00
2018-02-21T23:37:21.819Z,68.10
2018-02-21T23:39:50.124Z,68.10
2018-02-21T23:42:17.641Z,68.00
2018-02-21T23:44:45.156Z,67.60
2018-02-21T23:47:12.660Z,67.60
2018-02-21T23:49:40.923Z,67.50
2018-02-21T23:52:08.422Z,67.50
2018-02-21T23:54:35.927Z,67.60
2018-02-21T23:57:03.427Z,67.40
2018-02-21T23:59:31.703Z,66.90
